createdAt,value
2019-02-04T00:00:54.562Z,8.63
2019-02-04T00:03:21.923Z,7.93
2019-02-04T00:05:49.552Z,6.40
2019-02-04T00:08:16.902Z,6.60
2019-02-04T00:10:44.441Z,6.97
2019-02-04T00:13:11.797Z,7.43
2019-02-04T00:15:39.039Z,7.37
2019-02-04T00:18:06.409Z,7.47
2019-02-04T00:20:33.772Z,7.13
2019-02-04T00:23:01.155Z,8.27
2019-02-04T00:25:28.534Z,5.63
2019-02-04T00:27:56.238Z,6.87
2019-02-04T00:30:23.600Z,7.27
2019-02-04T00:32:51.104Z,7.27
2019-02-04T00:35:18.506Z,5.13
2019-02-04T00:37:46.139Z,7.63
2019-02-04T00:40:14.522Z,8.47
2019-02-04T00:42:41.896Z,6.93
2019-02-04T00:45:09.304Z,5.93
2019-02-04T00:47:36.660Z,8.47
2019-02-04T00:50:04.475Z,8.73
2019-02-04T00:52:31.834Z,9.17
2019-02-04T00:54:59.100Z,8.10
2019-02-04T00:57:26.485Z,6.60
2019-02-04T00:59:53.852Z,8.33
2019-02-04T01:02:21.201Z,7.90
2019-02-04T01:04:48.860Z,7.90
2019-02-04T01:07:16.196Z,6.47
2019-02-04T01:09:43.810Z,7.63
2019-02-04T01:12:11.186Z,6.97
2019-02-04T01:14:38.979Z,7.90
2019-02-04T01:17:06.586Z,8.00
2019-02-04T01:19:33.942Z,7.13
2019-02-04T01:22:01.452Z,6.07
2019-02-04T01:24:28.729Z,7.50
2019-02-04T01:26:56.168Z,7.90
2019-02-04T01:29:23.790Z,6.20
2019-02-04T01:31:51.124Z,6.50
2019-02-04T01:34:18.696Z,7.37
2019-02-04T01:36:45.960Z,6.57
2019-02-04T01:39:13.610Z,5.67
2019-02-04T01:41:41.245Z,6.50
2019-02-04T01:44:08.584Z,6.70
2019-02-04T01:46:36.124Z,5.10
2019-02-04T01:49:03.506Z,6.43
2019-02-04T01:51:30.968Z,4.70
2019-02-04T01:53:58.576Z,2.60
2019-02-04T01:56:25.972Z,5.33
2019-02-04T01:58:53.328Z,4.67
2019-02-04T02:01:20.671Z,5.57
2019-02-04T02:03:48.313Z,5.73
2019-02-04T02:06:15.699Z,5.63
2019-02-04T02:08:42.939Z,5.83
2019-02-04T02:11:10.328Z,4.80
2019-02-04T02:13:37.717Z,6.50
2019-02-04T02:16:04.974Z,5.97
2019-02-04T02:18:32.326Z,5.00
2019-02-04T02:20:59.959Z,5.67
2019-02-04T02:23:27.615Z,4.57
2019-02-04T02:25:54.974Z,4.97
2019-02-04T02:28:22.334Z,3.10
2019-02-04T02:30:49.879Z,4.27
2019-02-04T02:33:17.499Z,4.80
2019-02-04T02:35:44.923Z,5.23
2019-02-04T02:38:12.274Z,3.73
2019-02-04T02:40:39.913Z,5.03
2019-02-04T02:43:07.300Z,5.30
2019-02-04T02:45:34.621Z,3.07
2019-02-04T02:48:02.172Z,4.17
2019-02-04T02:50:29.534Z,4.40
2019-02-04T02:52:56.779Z,5.97
2019-02-04T02:55:24.045Z,5.30
2019-02-04T02:57:51.755Z,4.43
2019-02-04T03:00:20.536Z,4.67
2019-02-04T03:02:48.107Z,3.90
2019-02-04T03:05:15.587Z,3.90
2019-02-04T03:07:42.955Z,3.07
2019-02-04T03:10:11.266Z,4.63
2019-02-04T03:12:38.582Z,4.90
2019-02-04T03:15:06.369Z,3.30
2019-02-04T03:17:33.948Z,2.47
2019-02-04T03:20:01.590Z,3.43
2019-02-04T03:22:28.956Z,3.87
2019-02-04T03:24:56.506Z,3.67
2019-02-04T03:27:23.843Z,4.27
2019-02-04T03:29:51.109Z,2.43
2019-02-04T03:32:18.594Z,2.53
2019-02-04T03:34:46.093Z,3.87
2019-02-04T03:37:13.319Z,4.50
2019-02-04T03:39:40.711Z,3.67
2019-02-04T03:42:08.233Z,4.13
2019-02-04T03:44:35.613Z,4.00
2019-02-04T03:47:02.975Z,3.90
2019-02-04T03:49:30.219Z,4.20
2019-02-04T03:51:57.543Z,3.30
2019-02-04T03:54:24.880Z,5.60
2019-02-04T03:56:52.244Z,3.43
2019-02-04T03:59:19.507Z,4.40
2019-02-04T04:01:46.796Z,4.60
2019-02-04T04:04:14.606Z,4.00
2019-02-04T04:06:42.249Z,5.17
2019-02-04T04:09:09.610Z,4.50
2019-02-04T04:11:37.237Z,3.67
2019-02-04T04:14:04.835Z,4.30
2019-02-04T04:16:32.445Z,3.73
2019-02-04T04:19:00.083Z,3.07
2019-02-04T04:21:27.417Z,3.53
2019-02-04T04:23:55.047Z,2.50
2019-02-04T04:26:22.295Z,4.60
2019-02-04T04:28:49.730Z,4.27
2019-02-04T04:31:17.014Z,4.17
2019-02-04T04:33:44.362Z,3.43
2019-02-04T04:36:12.004Z,3.87
2019-02-04T04:38:39.642Z,3.90
2019-02-04T04:41:07.308Z,4.03
2019-02-04T04:43:34.821Z,4.57
2019-02-04T04:46:02.459Z,3.67
2019-02-04T04:48:29.816Z,3.83
2019-02-04T04:50:57.164Z,4.23
2019-02-04T04:53:24.507Z,4.43
2019-02-04T04:55:52.056Z,4.63
2019-02-04T04:58:19.396Z,3.80
2019-02-04T05:00:46.747Z,3.70
2019-02-04T05:03:14.113Z,3.73
2019-02-04T05:05:41.463Z,4.50
2019-02-04T05:08:09.102Z,3.43
2019-02-04T05:10:36.752Z,2.40
2019-02-04T05:13:04.195Z,3.07
2019-02-04T05:15:31.473Z,4.30
2019-02-04T05:17:58.840Z,3.40
2019-02-04T05:20:26.118Z,3.10
2019-02-04T05:22:53.750Z,3.87
2019-02-04T05:25:21.103Z,3.20
2019-02-04T05:27:48.484Z,2.23
2019-02-04T05:30:16.830Z,4.13
2019-02-04T05:32:44.188Z,4.10
2019-02-04T05:35:11.570Z,3.53
2019-02-04T05:37:38.927Z,2.23
2019-02-04T05:40:07.435Z,3.23
2019-02-04T05:42:35.067Z,3.70
2019-02-04T05:45:03.331Z,3.07
2019-02-04T05:47:30.715Z,2.37
2019-02-04T05:49:58.086Z,3.90
2019-02-04T05:52:25.456Z,3.37
2019-02-04T05:54:53.091Z,3.10
2019-02-04T05:57:20.472Z,3.57
2019-02-04T05:59:47.833Z,2.80
2019-02-04T06:02:15.416Z,2.63
2019-02-04T06:04:43.063Z,4.30
2019-02-04T06:07:10.688Z,3.30
2019-02-04T06:09:38.048Z,3.73
2019-02-04T06:12:05.410Z,3.80
2019-02-04T06:14:32.654Z,2.23
2019-02-04T06:16:59.934Z,3.60
2019-02-04T06:19:27.516Z,3.57
2019-02-04T06:21:55.106Z,3.80
2019-02-04T06:24:22.473Z,3.83
2019-02-04T06:26:49.840Z,3.50
2019-02-04T06:29:17.174Z,2.27
2019-02-04T06:31:45.057Z,2.60
2019-02-04T06:34:12.418Z,3.33
2019-02-04T06:36:39.869Z,2.60
2019-02-04T06:39:09.149Z,2.43
2019-02-04T06:41:36.829Z,3.07
2019-02-04T06:44:04.449Z,2.20
2019-02-04T06:46:32.049Z,2.13
2019-02-04T06:48:59.411Z,2.33
2019-02-04T06:51:26.841Z,3.20
2019-02-04T06:53:54.448Z,1.70
2019-02-04T06:56:22.088Z,2.57
2019-02-04T06:58:49.734Z,2.10
2019-02-04T07:01:17.368Z,3.70
2019-02-04T07:03:44.635Z,2.47
2019-02-04T07:06:11.894Z,2.40
2019-02-04T07:08:39.220Z,2.33
2019-02-04T07:11:07.115Z,2.87
2019-02-04T07:13:34.466Z,1.83
2019-02-04T07:16:01.913Z,2.67
2019-02-04T07:18:29.582Z,2.27
2019-02-04T07:20:56.850Z,1.73
2019-02-04T07:23:24.221Z,2.87
2019-02-04T07:25:51.829Z,3.20
2019-02-04T07:28:19.106Z,1.57
2019-02-04T07:30:46.470Z,2.07
2019-02-04T07:33:13.818Z,2.90
2019-02-04T07:35:42.015Z,2.47
2019-02-04T07:38:09.354Z,2.83
2019-02-04T07:40:36.888Z,2.63
2019-02-04T07:43:04.170Z,1.90
2019-02-04T07:45:31.852Z,2.83
2019-02-04T07:47:59.495Z,3.47
2019-02-04T07:50:26.806Z,1.77
2019-02-04T07:52:54.281Z,2.60
2019-02-04T07:55:21.638Z,3.80
2019-02-04T07:57:49.331Z,2.43
2019-02-04T08:00:17.860Z,3.73
2019-02-04T08:02:45.403Z,3.13
2019-02-04T08:05:12.762Z,2.23
2019-02-04T08:07:40.130Z,4.00
2019-02-04T08:10:07.786Z,3.37
2019-02-04T08:12:35.158Z,3.47
2019-02-04T08:15:02.745Z,3.03
2019-02-04T08:17:30.087Z,3.60
2019-02-04T08:19:57.474Z,3.47
2019-02-04T08:22:24.911Z,4.93
2019-02-04T08:24:52.269Z,3.67
2019-02-04T08:27:19.892Z,3.53
2019-02-04T08:29:47.434Z,3.10
2019-02-04T08:32:17.761Z,3.27
2019-02-04T08:34:45.414Z,3.40
2019-02-04T08:37:12.809Z,4.13
2019-02-04T08:39:40.074Z,4.10
2019-02-04T08:42:07.398Z,3.37
2019-02-04T08:44:34.794Z,4.07
2019-02-04T08:47:02.163Z,3.90
2019-02-04T08:49:29.538Z,3.23
2019-02-04T08:51:56.923Z,3.33
2019-02-04T08:54:24.683Z,3.13
2019-02-04T08:56:52.323Z,2.93
2019-02-04T08:59:19.690Z,3.07
2019-02-04T09:01:47.047Z,3.33
2019-02-04T09:04:14.452Z,3.57
2019-02-04T09:06:42.086Z,4.70
2019-02-04T09:09:09.935Z,3.83
2019-02-04T09:11:37.379Z,2.80
2019-02-04T09:14:04.873Z,3.33
2019-02-04T09:16:32.242Z,5.00
2019-02-04T09:18:59.872Z,3.43
2019-02-04T09:21:27.305Z,3.77
2019-02-04T09:23:54.662Z,2.33
2019-02-04T09:26:22.035Z,4.20
2019-02-04T09:28:49.652Z,3.60
2019-02-04T09:31:17.197Z,5.30
2019-02-04T09:33:44.630Z,4.27
2019-02-04T09:36:11.907Z,3.03
2019-02-04T09:38:39.532Z,4.10
2019-02-04T09:41:06.950Z,3.73
2019-02-04T09:43:34.338Z,3.10
2019-02-04T09:46:01.714Z,3.17
2019-02-04T09:48:29.289Z,4.10
2019-02-04T09:50:57.566Z,4.30
2019-02-04T09:53:25.220Z,4.47
2019-02-04T09:55:52.578Z,4.20
2019-02-04T09:58:19.931Z,3.13
2019-02-04T10:00:47.564Z,3.27
2019-02-04T10:03:15.129Z,3.03
2019-02-04T10:05:42.760Z,3.93
2019-02-04T10:08:10.167Z,2.37
2019-02-04T10:10:37.487Z,3.57
2019-02-04T10:13:05.122Z,3.70
2019-02-04T10:15:33.715Z,2.77
2019-02-04T10:18:01.076Z,5.37
2019-02-04T10:20:34.034Z,2.40
2019-02-04T10:22:57.845Z,2.93
2019-02-04T10:25:26.487Z,3.40
2019-02-04T10:27:54.153Z,3.20
2019-02-04T10:30:21.679Z,4.13
2019-02-04T10:32:49.302Z,3.23
2019-02-04T10:35:17.274Z,4.03
2019-02-04T10:37:45.613Z,3.20
2019-02-04T10:40:14.269Z,4.00
2019-02-04T10:42:41.602Z,4.10
2019-02-04T10:45:09.458Z,4.80
2019-02-04T10:47:37.106Z,4.00
2019-02-04T10:50:05.192Z,4.27
2019-02-04T10:52:32.534Z,4.57
2019-02-04T10:55:00.261Z,4.60
2019-02-04T10:57:27.573Z,3.60
2019-02-04T10:59:54.836Z,3.77
2019-02-04T11:02:22.465Z,2.87
2019-02-04T11:04:49.832Z,5.20
2019-02-04T11:07:17.213Z,3.73
2019-02-04T11:09:44.835Z,3.43
2019-02-04T11:12:12.632Z,3.20
2019-02-04T11:14:39.943Z,2.83
2019-02-04T11:17:07.721Z,3.43
2019-02-04T11:19:35.088Z,5.37
2019-02-04T11:22:02.838Z,5.63
2019-02-04T11:24:30.229Z,4.63
2019-02-04T11:26:57.582Z,2.93
2019-02-04T11:29:25.270Z,3.53
2019-02-04T11:31:52.637Z,3.37
2019-02-04T11:34:20.288Z,3.30
2019-02-04T11:36:47.641Z,2.60
2019-02-04T11:39:15.358Z,4.93
2019-02-04T11:41:42.733Z,3.23
2019-02-04T11:44:10.087Z,3.20
2019-02-04T11:46:37.671Z,4.20
2019-02-04T11:49:05.027Z,4.23
2019-02-04T11:51:32.404Z,5.07
2019-02-04T11:53:59.674Z,4.37
2019-02-04T11:56:26.924Z,2.97
2019-02-04T11:58:54.578Z,3.20
2019-02-04T12:01:21.932Z,4.20
2019-02-04T12:03:49.886Z,4.10
2019-02-04T12:06:17.636Z,3.67
2019-02-04T12:08:44.997Z,4.17
2019-02-04T12:11:16.057Z,3.77
2019-02-04T12:13:43.422Z,4.47
2019-02-04T12:16:10.776Z,4.77
2019-02-04T12:18:38.060Z,3.43
2019-02-04T12:21:05.693Z,3.63
2019-02-04T12:23:33.034Z,3.80
2019-02-04T12:26:00.405Z,3.80
2019-02-04T12:28:27.773Z,4.00
2019-02-04T12:30:55.170Z,4.70
2019-02-04T12:33:22.572Z,3.33
2019-02-04T12:35:49.994Z,3.37
2019-02-04T12:38:17.787Z,4.77
2019-02-04T12:40:45.145Z,4.37
2019-02-04T12:43:12.923Z,4.60
2019-02-04T12:45:41.096Z,5.50
2019-02-04T12:48:08.527Z,4.00
2019-02-04T12:50:35.970Z,2.43
2019-02-04T12:53:04.605Z,4.53
2019-02-04T12:55:32.347Z,5.23
2019-02-04T12:57:59.692Z,3.10
2019-02-04T13:00:27.487Z,4.50
2019-02-04T13:02:55.037Z,4.77
2019-02-04T13:05:42.059Z,5.93
2019-02-04T13:08:09.523Z,5.30
2019-02-04T13:10:36.874Z,4.47
2019-02-04T13:13:05.329Z,3.83
2019-02-04T13:15:32.696Z,4.43
2019-02-04T13:18:00.060Z,3.47
2019-02-04T13:20:27.432Z,4.03
2019-02-04T13:22:54.805Z,3.90
2019-02-04T13:25:23.385Z,3.73
2019-02-04T13:27:50.767Z,3.70
2019-02-04T13:30:18.877Z,3.30
2019-02-04T13:32:46.503Z,3.93
2019-02-04T13:35:13.797Z,3.53
2019-02-04T13:37:41.170Z,3.80
2019-02-04T13:40:10.130Z,4.83
2019-02-04T13:42:37.491Z,4.37
2019-02-04T13:45:05.586Z,4.67
2019-02-04T13:47:32.935Z,4.80
2019-02-04T13:50:00.303Z,5.53
2019-02-04T13:52:27.933Z,4.60
2019-02-04T13:54:55.319Z,5.33
2019-02-04T13:57:22.995Z,5.30
2019-02-04T13:59:50.253Z,6.07
2019-02-04T14:02:17.630Z,4.23
2019-02-04T14:04:44.962Z,6.37
2019-02-04T14:07:12.207Z,5.70
2019-02-04T14:09:39.588Z,3.47
2019-02-04T14:12:06.942Z,3.83
2019-02-04T14:14:34.197Z,4.57
2019-02-04T14:17:01.544Z,6.57
2019-02-04T14:19:28.920Z,5.60
2019-02-04T14:21:56.277Z,6.30
2019-02-04T14:24:23.894Z,7.27
2019-02-04T14:26:51.259Z,3.60
2019-02-04T14:29:18.622Z,7.70
2019-02-04T14:31:46.000Z,5.13
2019-02-04T14:34:13.389Z,4.47
2019-02-04T14:36:40.802Z,5.60
2019-02-04T14:39:10.845Z,5.37
2019-02-04T14:41:38.387Z,3.90
2019-02-04T14:44:12.421Z,5.23
2019-02-04T14:46:48.677Z,6.33
2019-02-04T14:49:20.376Z,5.53
2019-02-04T14:51:51.890Z,7.30
2019-02-04T14:54:38.218Z,7.53
2019-02-04T14:57:31.364Z,6.80
2019-02-04T15:00:04.039Z,4.83
2019-02-04T15:02:38.405Z,5.50
2019-02-04T15:05:28.299Z,4.37
2019-02-04T15:08:32.881Z,6.10
2019-02-04T15:10:57.243Z,6.17
2019-02-04T15:13:31.566Z,6.83
2019-02-04T15:16:06.420Z,4.57
2019-02-04T15:18:56.575Z,8.33
2019-02-04T15:21:27.736Z,5.97
2019-02-04T15:24:17.737Z,6.40
2019-02-04T15:27:03.031Z,6.60
2019-02-04T15:29:46.197Z,6.40
2019-02-04T15:32:22.929Z,5.20
2019-02-04T15:35:15.771Z,6.00
2019-02-04T15:38:05.296Z,7.93
2019-02-04T15:40:35.362Z,7.10
2019-02-04T15:43:14.098Z,6.20
2019-02-04T15:45:50.599Z,6.87
2019-02-04T15:48:20.245Z,6.20
2019-02-04T15:50:51.992Z,5.80
2019-02-04T15:53:19.373Z,5.07
2019-02-04T15:55:46.744Z,5.87
2019-02-04T15:58:14.084Z,6.73
2019-02-04T16:00:41.349Z,5.07
2019-02-04T16:03:09.014Z,4.83
2019-02-04T16:05:36.366Z,5.17
2019-02-04T16:08:04.013Z,5.77
2019-02-04T16:10:31.372Z,9.10
2019-02-04T16:12:58.913Z,4.40
2019-02-04T16:15:26.286Z,6.10
2019-02-04T16:17:53.595Z,5.30
2019-02-04T16:20:21.969Z,6.43
2019-02-04T16:22:57.822Z,5.57
2019-02-04T16:25:18.571Z,6.73
2019-02-04T16:27:45.831Z,4.57
2019-02-04T16:30:14.460Z,6.37
2019-02-04T16:32:41.815Z,4.97
2019-02-04T16:35:10.429Z,6.17
2019-02-04T16:37:37.837Z,8.27
2019-02-04T16:40:05.906Z,7.63
2019-02-04T16:42:33.590Z,5.87
2019-02-04T16:45:00.976Z,5.57
2019-02-04T16:47:28.330Z,4.50
2019-02-04T16:49:55.704Z,7.53
2019-02-04T16:52:23.395Z,5.10
2019-02-04T16:54:50.648Z,6.07
2019-02-04T16:57:17.995Z,7.57
2019-02-04T16:59:45.386Z,8.33
2019-02-04T17:02:12.985Z,5.33
2019-02-04T17:04:40.345Z,7.00
2019-02-04T17:07:07.724Z,6.93
2019-02-04T17:09:35.088Z,6.57
2019-02-04T17:12:02.471Z,8.20
2019-02-04T17:14:29.849Z,5.07
2019-02-04T17:16:57.496Z,5.43
2019-02-04T17:19:24.914Z,6.33
2019-02-04T17:21:52.288Z,4.43
2019-02-04T17:24:19.892Z,5.80
2019-02-04T17:26:47.260Z,6.07
2019-02-04T17:29:14.879Z,6.83
2019-02-04T17:31:42.266Z,6.57
2019-02-04T17:34:09.540Z,6.67
2019-02-04T17:36:36.778Z,6.93
2019-02-04T17:39:05.653Z,3.53
2019-02-04T17:41:33.010Z,6.27
2019-02-04T17:44:00.286Z,8.40
2019-02-04T17:46:27.945Z,4.80
2019-02-04T17:48:55.338Z,8.67
2019-02-04T17:51:23.001Z,7.97
2019-02-04T17:53:50.387Z,6.37
2019-02-04T17:56:17.746Z,7.90
2019-02-04T17:58:45.168Z,4.97
2019-02-04T18:01:14.421Z,5.13
2019-02-04T18:03:42.037Z,7.10
2019-02-04T18:06:09.481Z,6.40
2019-02-04T18:08:36.865Z,5.93
2019-02-04T18:11:04.216Z,6.27
2019-02-04T18:13:31.600Z,8.13
2019-02-04T18:15:59.086Z,6.13
2019-02-04T18:18:26.475Z,7.50
2019-02-04T18:20:53.815Z,6.07
2019-02-04T18:23:21.098Z,6.30
2019-02-04T18:25:48.578Z,6.20
2019-02-04T18:28:15.928Z,6.00
2019-02-04T18:30:43.307Z,6.83
2019-02-04T18:33:10.740Z,7.30
2019-02-04T18:35:38.412Z,7.80
2019-02-04T18:38:06.074Z,5.93
2019-02-04T18:40:33.452Z,8.33
2019-02-04T18:43:00.832Z,5.93
2019-02-04T18:45:28.663Z,6.63
2019-02-04T18:47:56.033Z,6.63
2019-02-04T18:50:24.009Z,3.73
2019-02-04T18:52:52.148Z,4.13
2019-02-04T18:55:24.810Z,6.60
2019-02-04T18:57:52.440Z,6.10
2019-02-04T19:00:20.952Z,6.00
2019-02-04T19:02:48.327Z,5.43
2019-02-04T19:05:16.063Z,6.50
2019-02-04T19:07:43.348Z,6.20
2019-02-04T19:10:11.488Z,4.93
2019-02-04T19:12:38.744Z,4.13
2019-02-04T19:15:07.976Z,6.23
2019-02-04T19:17:35.371Z,4.77
2019-02-04T19:20:03.389Z,5.77
2019-02-04T19:22:31.077Z,7.40
2019-02-04T19:24:58.358Z,5.47
2019-02-04T19:27:25.787Z,6.53
2019-02-04T19:29:53.154Z,8.20
2019-02-04T19:32:20.795Z,7.57
2019-02-04T19:34:48.092Z,6.53
2019-02-04T19:37:15.392Z,9.87
2019-02-04T19:39:42.800Z,6.80
2019-02-04T19:42:10.425Z,8.93
2019-02-04T19:44:40.510Z,8.57
2019-02-04T19:47:07.917Z,7.20
2019-02-04T19:49:42.751Z,7.73
2019-02-04T19:52:10.409Z,8.30
2019-02-04T19:54:37.832Z,7.87
2019-02-04T19:57:05.192Z,7.37
2019-02-04T19:59:32.860Z,8.50
2019-02-04T20:02:00.209Z,9.87
2019-02-04T20:04:27.835Z,6.33
2019-02-04T20:06:55.190Z,8.97
2019-02-04T20:09:22.448Z,8.07
2019-02-04T20:11:50.098Z,9.20
2019-02-04T20:14:17.749Z,10.30
2019-02-04T20:16:45.147Z,8.53
2019-02-04T20:19:12.488Z,8.67
2019-02-04T20:21:39.738Z,9.50
2019-02-04T20:24:33.191Z,8.23
2019-02-04T20:26:55.924Z,8.40
2019-02-04T20:29:23.543Z,8.13
2019-02-04T20:31:50.809Z,9.53
2019-02-04T20:34:18.386Z,9.13
2019-02-04T20:36:45.765Z,9.23
2019-02-04T20:39:13.143Z,7.57
2019-02-04T20:41:40.932Z,10.23
2019-02-04T20:44:08.317Z,8.30
2019-02-04T20:46:35.676Z,8.20
2019-02-04T20:49:03.400Z,9.60
2019-02-04T20:51:30.703Z,9.00
2019-02-04T20:53:57.977Z,8.53
2019-02-04T20:56:44.816Z,9.83
2019-02-04T20:59:12.197Z,9.37
2019-02-04T21:01:39.839Z,10.47
2019-02-04T21:04:07.227Z,8.60
2019-02-04T21:06:34.520Z,9.97
2019-02-04T21:09:01.880Z,9.80
2019-02-04T21:11:29.420Z,8.17
2019-02-04T21:13:56.801Z,9.83
2019-02-04T21:16:24.151Z,7.57
2019-02-04T21:18:51.508Z,10.23
2019-02-04T21:21:19.385Z,4.73
2019-02-04T21:23:46.735Z,10.13
2019-02-04T21:26:14.095Z,9.33
2019-02-04T21:28:41.395Z,4.37
2019-02-04T21:31:11.251Z,8.57
2019-02-04T21:33:38.218Z,11.17
2019-02-04T21:36:06.054Z,10.37
2019-02-04T21:38:33.440Z,7.87
2019-02-04T21:43:47.177Z,5.40
2019-02-04T21:46:14.675Z,11.00
2019-02-04T21:48:42.291Z,11.17
2019-02-04T21:51:09.599Z,9.87
2019-02-04T21:53:36.992Z,10.40
2019-02-04T21:56:04.539Z,10.47
2019-02-04T21:58:31.914Z,8.03
2019-02-04T22:00:59.531Z,12.90
2019-02-04T22:03:27.180Z,9.20
2019-02-04T22:06:14.022Z,9.90
2019-02-04T22:08:41.383Z,11.87
2019-02-04T22:11:08.718Z,12.00
2019-02-04T22:13:36.112Z,11.13
2019-02-04T22:16:22.950Z,9.07
2019-02-04T22:18:52.144Z,9.37
2019-02-04T22:21:19.839Z,11.20
2019-02-04T22:23:47.515Z,8.33
2019-02-04T22:26:34.311Z,10.37
2019-02-04T22:29:04.016Z,10.30
2019-02-04T22:31:50.976Z,10.50
2019-02-04T22:34:20.384Z,7.93
2019-02-04T22:37:07.907Z,6.87
2019-02-04T22:39:35.199Z,8.33
2019-02-04T22:42:02.825Z,9.53
2019-02-04T22:44:30.434Z,9.63
2019-02-04T22:47:17.259Z,10.70
2019-02-04T23:01:45.357Z,7.27
2019-02-04T23:04:13.025Z,10.10
2019-02-04T23:06:40.713Z,10.90
2019-02-04T23:09:08.377Z,9.93
2019-02-04T23:11:35.834Z,9.60
2019-02-04T23:14:22.570Z,6.77
2019-02-04T23:16:49.939Z,11.43
2019-02-04T23:19:37.006Z,11.97
2019-02-04T23:25:03.572Z,9.97
2019-02-04T23:27:50.383Z,10.97
2019-02-04T23:30:18.321Z,11.73
2019-02-04T23:33:05.419Z,7.13
2019-02-04T23:35:33.039Z,12.40
2019-02-04T23:38:00.388Z,11.17
2019-02-04T23:40:27.716Z,12.17
2019-02-04T23:43:14.454Z,12.93
2019-02-04T23:46:03.342Z,11.73
2019-02-04T23:48:30.773Z,11.07
2019-02-04T23:50:58.372Z,9.30
2019-02-04T23:53:45.209Z,11.60
